sensor_id;sensor_type;location;lat;lon;timestamp;temperature;humidity
152;DHT22;68;48.792;9.164;2023-06-19T00:00:46;24.70;62.00
152;DHT22;68;48.792;9.164;2023-06-19T00:03:13;24.60;62.50
152;DHT22;68;48.792;9.164;2023-06-19T00:05:40;24.60;63.00
152;DHT22;68;48.792;9.164;2023-06-19T00:08:08;24.60;62.90
152;DHT22;68;48.792;9.164;2023-06-19T00:10:34;24.60;62.50
152;DHT22;68;48.792;9.164;2023-06-19T00:13:01;24.60;63.10
152;DHT22;68;48.792;9.164;2023-06-19T00:15:28;24.60;62.90
152;DHT22;68;48.792;9.164;2023-06-19T00:17:55;24.60;63.50
152;DHT22;68;48.792;9.164;2023-06-19T00:20:24;24.40;63.20
152;DHT22;68;48.792;9.164;2023-06-19T00:22:50;24.40;63.30
152;DHT22;68;48.792;9.164;2023-06-19T00:25:19;24.40;63.20
152;DHT22;68;48.792;9.164;2023-06-19T00:27:46;24.50;63.20
152;DHT22;68;48.792;9.164;2023-06-19T00:30:13;24.50;63.20
152;DHT22;68;48.792;9.164;2023-06-19T00:32:40;24.50;63.50
152;DHT22;68;48.792;9.164;2023-06-19T00:35:13;24.50;63.00
152;DHT22;68;48.792;9.164;2023-06-19T00:37:40;24.40;62.90
152;DHT22;68;48.792;9.164;2023-06-19T00:40:14;24.50;62.70
152;DHT22;68;48.792;9.164;2023-06-19T00:42:44;24.60;62.50
152;DHT22;68;48.792;9.164;2023-06-19T00:45:11;24.60;62.40
152;DHT22;68;48.792;9.164;2023-06-19T00:47:37;24.80;62.10
152;DHT22;68;48.792;9.164;2023-06-19T00:50:05;24.70;62.20
152;DHT22;68;48.792;9.164;2023-06-19T00:52:33;24.70;62.30
152;DHT22;68;48.792;9.164;2023-06-19T00:55:00;24.60;61.90
152;DHT22;68;48.792;9.164;2023-06-19T00:57:28;24.60;62.50
152;DHT22;68;48.792;9.164;2023-06-19T00:59:57;24.60;62.80
152;DHT22;68;48.792;9.164;2023-06-19T01:02:24;24.60;62.30
152;DHT22;68;48.792;9.164;2023-06-19T01:04:51;24.60;62.30
152;DHT22;68;48.792;9.164;2023-06-19T01:07:20;24.60;62.50
152;DHT22;68;48.792;9.164;2023-06-19T01:09:52;24.50;62.90
152;DHT22;68;48.792;9.164;2023-06-19T01:12:22;24.40;63.20
152;DHT22;68;48.792;9.164;2023-06-19T01:14:54;24.40;62.90
152;DHT22;68;48.792;9.164;2023-06-19T01:17:22;24.30;62.90
152;DHT22;68;48.792;9.164;2023-06-19T01:19:50;24.00;63.40
152;DHT22;68;48.792;9.164;2023-06-19T01:22:25;24.00;63.40
152;DHT22;68;48.792;9.164;2023-06-19T01:24:52;24.10;63.30
152;DHT22;68;48.792;9.164;2023-06-19T01:27:19;24.00;64.20
152;DHT22;68;48.792;9.164;2023-06-19T01:29:46;24.10;64.20
152;DHT22;68;48.792;9.164;2023-06-19T01:32:17;24.20;63.60
152;DHT22;68;48.792;9.164;2023-06-19T01:34:46;24.10;64.10
152;DHT22;68;48.792;9.164;2023-06-19T01:37:16;24.10;64.30
152;DHT22;68;48.792;9.164;2023-06-19T01:39:45;24.10;64.10
152;DHT22;68;48.792;9.164;2023-06-19T01:42:13;24.00;64.20
152;DHT22;68;48.792;9.164;2023-06-19T01:44:40;23.80;66.20
152;DHT22;68;48.792;9.164;2023-06-19T01:47:09;23.70;66.00
152;DHT22;68;48.792;9.164;2023-06-19T01:49:36;23.60;66.80
152;DHT22;68;48.792;9.164;2023-06-19T01:52:03;23.70;67.40
152;DHT22;68;48.792;9.164;2023-06-19T01:54:31;23.70;67.10
152;DHT22;68;48.792;9.164;2023-06-19T01:56:59;23.80;66.40
152;DHT22;68;48.792;9.164;2023-06-19T01:59:25;23.60;67.60
152;DHT22;68;48.792;9.164;2023-06-19T02:01:52;23.50;67.60
152;DHT22;68;48.792;9.164;2023-06-19T02:04:19;23.50;67.80
152;DHT22;68;48.792;9.164;2023-06-19T02:06:46;23.50;68.30
152;DHT22;68;48.792;9.164;2023-06-19T02:09:12;23.50;68.20
152;DHT22;68;48.792;9.164;2023-06-19T02:11:39;23.40;69.30
152;DHT22;68;48.792;9.164;2023-06-19T02:14:09;23.40;69.40
152;DHT22;68;48.792;9.164;2023-06-19T02:16:36;23.50;69.20
152;DHT22;68;48.792;9.164;2023-06-19T02:19:03;23.50;69.40
152;DHT22;68;48.792;9.164;2023-06-19T02:21:30;23.50;69.90
152;DHT22;68;48.792;9.164;2023-06-19T02:23:57;23.50;69.80
152;DHT22;68;48.792;9.164;2023-06-19T02:26:23;23.50;70.00
152;DHT22;68;48.792;9.164;2023-06-19T02:28:53;23.50;70.20
152;DHT22;68;48.792;9.164;2023-06-19T02:31:21;23.50;69.80
152;DHT22;68;48.792;9.164;2023-06-19T02:33:48;23.50;69.80
152;DHT22;68;48.792;9.164;2023-06-19T02:36:15;23.50;69.90
152;DHT22;68;48.792;9.164;2023-06-19T02:38:45;23.70;69.30
152;DHT22;68;48.792;9.164;2023-06-19T02:41:12;23.80;69.40
152;DHT22;68;48.792;9.164;2023-06-19T02:43:39;23.80;69.30
152;DHT22;68;48.792;9.164;2023-06-19T02:46:06;24.00;69.00
152;DHT22;68;48.792;9.164;2023-06-19T02:48:34;24.00;68.80
152;DHT22;68;48.792;9.164;2023-06-19T02:51:01;23.80;69.30
152;DHT22;68;48.792;9.164;2023-06-19T02:53:27;23.70;70.10
152;DHT22;68;48.792;9.164;2023-06-19T02:55:54;23.70;70.10
152;DHT22;68;48.792;9.164;2023-06-19T02:58:21;23.80;69.90
152;DHT22;68;48.792;9.164;2023-06-19T03:00:48;23.80;69.80
152;DHT22;68;48.792;9.164;2023-06-19T03:03:15;23.90;69.70
152;DHT22;68;48.792;9.164;2023-06-19T03:05:43;23.90;69.50
152;DHT22;68;48.792;9.164;2023-06-19T03:08:10;24.00;69.00
152;DHT22;68;48.792;9.164;2023-06-19T03:10:37;24.00;69.40
152;DHT22;68;48.792;9.164;2023-06-19T03:13:03;24.00;69.60
152;DHT22;68;48.792;9.164;2023-06-19T03:15:30;23.90;70.00
152;DHT22;68;48.792;9.164;2023-06-19T03:17:57;23.50;70.60
152;DHT22;68;48.792;9.164;2023-06-19T03:20:24;23.20;72.00
152;DHT22;68;48.792;9.164;2023-06-19T03:22:52;23.30;72.10
152;DHT22;68;48.792;9.164;2023-06-19T03:25:19;23.40;71.90
152;DHT22;68;48.792;9.164;2023-06-19T03:27:46;23.60;72.70
152;DHT22;68;48.792;9.164;2023-06-19T03:30:13;23.40;73.70
152;DHT22;68;48.792;9.164;2023-06-19T03:32:43;23.40;73.70
152;DHT22;68;48.792;9.164;2023-06-19T03:35:10;23.20;74.80
152;DHT22;68;48.792;9.164;2023-06-19T03:37:37;23.10;74.20
152;DHT22;68;48.792;9.164;2023-06-19T03:40:06;23.10;75.00
152;DHT22;68;48.792;9.164;2023-06-19T03:42:34;22.90;74.60
152;DHT22;68;48.792;9.164;2023-06-19T03:45:01;22.90;75.90
152;DHT22;68;48.792;9.164;2023-06-19T03:47:28;22.90;74.50
152;DHT22;68;48.792;9.164;2023-06-19T03:49:54;23.00;74.70
152;DHT22;68;48.792;9.164;2023-06-19T03:52:21;22.90;74.00
152;DHT22;68;48.792;9.164;2023-06-19T03:54:48;22.90;74.80
152;DHT22;68;48.792;9.164;2023-06-19T03:57:16;22.70;74.90
152;DHT22;68;48.792;9.164;2023-06-19T03:59:43;22.70;75.30
152;DHT22;68;48.792;9.164;2023-06-19T04:02:09;22.90;74.10
152;DHT22;68;48.792;9.164;2023-06-19T04:04:36;23.00;74.50
152;DHT22;68;48.792;9.164;2023-06-19T04:07:03;23.00;74.30
152;DHT22;68;48.792;9.164;2023-06-19T04:09:30;22.80;74.60
152;DHT22;68;48.792;9.164;2023-06-19T04:11:57;22.80;74.40
152;DHT22;68;48.792;9.164;2023-06-19T04:14:25;22.80;74.60
152;DHT22;68;48.792;9.164;2023-06-19T04:16:51;22.70;74.60
152;DHT22;68;48.792;9.164;2023-06-19T04:19:18;22.90;74.70
152;DHT22;68;48.792;9.164;2023-06-19T04:21:45;23.10;73.70
152;DHT22;68;48.792;9.164;2023-06-19T04:24:12;23.20;73.50
152;DHT22;68;48.792;9.164;2023-06-19T04:26:38;23.20;73.70
152;DHT22;68;48.792;9.164;2023-06-19T04:29:07;23.00;74.20
152;DHT22;68;48.792;9.164;2023-06-19T04:31:43;23.00;74.40
152;DHT22;68;48.792;9.164;2023-06-19T04:34:12;22.80;75.10
152;DHT22;68;48.792;9.164;2023-06-19T04:36:39;22.60;76.70
152;DHT22;68;48.792;9.164;2023-06-19T04:39:06;22.50;76.40
152;DHT22;68;48.792;9.164;2023-06-19T04:41:34;22.50;77.00
152;DHT22;68;48.792;9.164;2023-06-19T04:44:04;22.50;77.30
152;DHT22;68;48.792;9.164;2023-06-19T04:46:31;22.20;77.80
152;DHT22;68;48.792;9.164;2023-06-19T04:48:59;22.30;78.00
152;DHT22;68;48.792;9.164;2023-06-19T04:51:29;22.20;78.80
152;DHT22;68;48.792;9.164;2023-06-19T04:53:56;22.10;78.90
152;DHT22;68;48.792;9.164;2023-06-19T04:56:22;22.10;79.90
152;DHT22;68;48.792;9.164;2023-06-19T04:58:49;22.30;78.70
152;DHT22;68;48.792;9.164;2023-06-19T05:01:17;22.50;78.70
152;DHT22;68;48.792;9.164;2023-06-19T05:03:48;22.60;78.00
152;DHT22;68;48.792;9.164;2023-06-19T05:06:16;22.90;77.10
152;DHT22;68;48.792;9.164;2023-06-19T05:08:43;23.00;76.90
152;DHT22;68;48.792;9.164;2023-06-19T05:11:10;23.10;76.40
152;DHT22;68;48.792;9.164;2023-06-19T05:13:37;23.10;76.60
152;DHT22;68;48.792;9.164;2023-06-19T05:16:03;22.90;77.90
152;DHT22;68;48.792;9.164;2023-06-19T05:18:30;22.60;78.20
152;DHT22;68;48.792;9.164;2023-06-19T05:20:57;22.60;78.80
152;DHT22;68;48.792;9.164;2023-06-19T05:23:25;22.40;79.50
152;DHT22;68;48.792;9.164;2023-06-19T05:25:52;22.50;79.50
152;DHT22;68;48.792;9.164;2023-06-19T05:28:18;22.60;79.90
152;DHT22;68;48.792;9.164;2023-06-19T05:30:45;22.70;79.40
152;DHT22;68;48.792;9.164;2023-06-19T05:33:12;22.70;79.30
152;DHT22;68;48.792;9.164;2023-06-19T05:35:41;22.90;78.40
152;DHT22;68;48.792;9.164;2023-06-19T05:38:08;23.10;78.30
152;DHT22;68;48.792;9.164;2023-06-19T05:40:36;22.90;77.70
152;DHT22;68;48.792;9.164;2023-06-19T05:43:03;22.90;77.90
152;DHT22;68;48.792;9.164;2023-06-19T05:45:30;23.20;77.60
152;DHT22;68;48.792;9.164;2023-06-19T05:47:56;23.10;77.50
152;DHT22;68;48.792;9.164;2023-06-19T05:50:24;23.00;78.80
152;DHT22;68;48.792;9.164;2023-06-19T05:52:51;22.90;78.00
152;DHT22;68;48.792;9.164;2023-06-19T05:55:18;23.00;78.40
152;DHT22;68;48.792;9.164;2023-06-19T05:57:46;23.10;78.00
152;DHT22;68;48.792;9.164;2023-06-19T06:00:14;23.20;77.90
152;DHT22;68;48.792;9.164;2023-06-19T06:02:41;23.30;77.40
152;DHT22;68;48.792;9.164;2023-06-19T06:05:08;23.20;76.90
152;DHT22;68;48.792;9.164;2023-06-19T06:07:35;23.40;77.60
152;DHT22;68;48.792;9.164;2023-06-19T06:10:02;23.30;77.00
152;DHT22;68;48.792;9.164;2023-06-19T06:12:29;23.30;78.00
152;DHT22;68;48.792;9.164;2023-06-19T06:14:57;23.30;77.80
152;DHT22;68;48.792;9.164;2023-06-19T06:17:24;23.50;77.10
152;DHT22;68;48.792;9.164;2023-06-19T06:19:51;23.50;77.50
152;DHT22;68;48.792;9.164;2023-06-19T06:22:17;23.50;77.70
152;DHT22;68;48.792;9.164;2023-06-19T06:24:44;23.50;77.60
152;DHT22;68;48.792;9.164;2023-06-19T06:27:12;23.60;77.50
152;DHT22;68;48.792;9.164;2023-06-19T06:29:38;23.70;77.20
152;DHT22;68;48.792;9.164;2023-06-19T06:32:07;23.70;77.60
152;DHT22;68;48.792;9.164;2023-06-19T06:34:34;23.80;78.00
152;DHT22;68;48.792;9.164;2023-06-19T06:37:02;23.80;78.20
152;DHT22;68;48.792;9.164;2023-06-19T06:39:29;23.90;77.80
152;DHT22;68;48.792;9.164;2023-06-19T06:41:56;23.90;75.20
152;DHT22;68;48.792;9.164;2023-06-19T06:44:23;24.10;75.70
152;DHT22;68;48.792;9.164;2023-06-19T06:46:49;24.10;75.80
152;DHT22;68;48.792;9.164;2023-06-19T06:49:17;24.20;75.50
152;DHT22;68;48.792;9.164;2023-06-19T06:51:45;24.20;75.30
152;DHT22;68;48.792;9.164;2023-06-19T06:54:12;24.40;73.70
152;DHT22;68;48.792;9.164;2023-06-19T06:56:39;24.40;73.60
152;DHT22;68;48.792;9.164;2023-06-19T06:59:05;24.40;74.10
152;DHT22;68;48.792;9.164;2023-06-19T07:01:32;24.40;73.70
152;DHT22;68;48.792;9.164;2023-06-19T07:03:59;24.30;72.90
152;DHT22;68;48.792;9.164;2023-06-19T07:06:27;24.30;74.50
152;DHT22;68;48.792;9.164;2023-06-19T07:08:54;24.40;74.00
152;DHT22;68;48.792;9.164;2023-06-19T07:11:20;24.50;73.90
152;DHT22;68;48.792;9.164;2023-06-19T07:13:47;24.50;73.60
152;DHT22;68;48.792;9.164;2023-06-19T07:16:14;24.50;73.10
152;DHT22;68;48.792;9.164;2023-06-19T07:18:41;24.40;72.70
152;DHT22;68;48.792;9.164;2023-06-19T07:21:11;24.30;73.50
152;DHT22;68;48.792;9.164;2023-06-19T07:23:40;24.30;73.60
152;DHT22;68;48.792;9.164;2023-06-19T07:26:07;24.30;72.90
152;DHT22;68;48.792;9.164;2023-06-19T07:28:34;24.20;73.20
152;DHT22;68;48.792;9.164;2023-06-19T07:31:01;24.20;73.40
152;DHT22;68;48.792;9.164;2023-06-19T07:33:28;24.50;73.30
152;DHT22;68;48.792;9.164;2023-06-19T07:35:56;24.50;73.60
152;DHT22;68;48.792;9.164;2023-06-19T07:38:22;24.70;72.80
152;DHT22;68;48.792;9.164;2023-06-19T07:40:51;24.90;72.30
152;DHT22;68;48.792;9.164;2023-06-19T07:43:17;25.00;71.90
152;DHT22;68;48.792;9.164;2023-06-19T07:45:44;25.10;71.00
152;DHT22;68;48.792;9.164;2023-06-19T07:48:11;25.20;71.90
152;DHT22;68;48.792;9.164;2023-06-19T07:50:37;25.30;71.40
152;DHT22;68;48.792;9.164;2023-06-19T07:53:04;25.40;70.50
152;DHT22;68;48.792;9.164;2023-06-19T07:55:31;25.50;68.80
152;DHT22;68;48.792;9.164;2023-06-19T07:58:01;25.50;70.30
152;DHT22;68;48.792;9.164;2023-06-19T08:00:28;25.50;69.90
152;DHT22;68;48.792;9.164;2023-06-19T08:02:55;25.50;70.30
152;DHT22;68;48.792;9.164;2023-06-19T08:05:22;25.40;70.80
152;DHT22;68;48.792;9.164;2023-06-19T08:07:49;25.40;70.90
152;DHT22;68;48.792;9.164;2023-06-19T08:10:16;25.60;70.60
152;DHT22;68;48.792;9.164;2023-06-19T08:12:43;25.80;69.30
152;DHT22;68;48.792;9.164;2023-06-19T08:15:12;25.90;68.20
152;DHT22;68;48.792;9.164;2023-06-19T08:17:39;25.90;68.80
152;DHT22;68;48.792;9.164;2023-06-19T08:20:07;25.90;69.40
152;DHT22;68;48.792;9.164;2023-06-19T08:22:35;26.00;68.30
152;DHT22;68;48.792;9.164;2023-06-19T08:25:03;25.90;68.20
152;DHT22;68;48.792;9.164;2023-06-19T08:27:30;25.90;67.80
152;DHT22;68;48.792;9.164;2023-06-19T08:29:56;25.90;68.70
152;DHT22;68;48.792;9.164;2023-06-19T08:32:24;25.90;68.90
152;DHT22;68;48.792;9.164;2023-06-19T08:34:52;25.60;68.10
152;DHT22;68;48.792;9.164;2023-06-19T08:37:19;25.60;68.10
152;DHT22;68;48.792;9.164;2023-06-19T08:39:45;25.60;68.60
152;DHT22;68;48.792;9.164;2023-06-19T08:42:12;25.70;69.30
152;DHT22;68;48.792;9.164;2023-06-19T08:44:39;25.70;69.10
152;DHT22;68;48.792;9.164;2023-06-19T08:47:07;25.90;69.00
152;DHT22;68;48.792;9.164;2023-06-19T08:49:36;25.90;70.20
152;DHT22;68;48.792;9.164;2023-06-19T08:52:04;26.00;69.30
152;DHT22;68;48.792;9.164;2023-06-19T08:54:31;26.10;68.00
152;DHT22;68;48.792;9.164;2023-06-19T08:57:00;26.10;68.90
152;DHT22;68;48.792;9.164;2023-06-19T08:59:27;26.20;69.00
152;DHT22;68;48.792;9.164;2023-06-19T09:01:55;26.30;69.00
152;DHT22;68;48.792;9.164;2023-06-19T09:04:24;26.40;67.40
152;DHT22;68;48.792;9.164;2023-06-19T09:06:55;26.50;68.00
152;DHT22;68;48.792;9.164;2023-06-19T09:09:23;26.60;66.90
152;DHT22;68;48.792;9.164;2023-06-19T09:11:57;26.60;67.20
152;DHT22;68;48.792;9.164;2023-06-19T09:14:31;26.60;66.90
152;DHT22;68;48.792;9.164;2023-06-19T09:16:58;26.60;66.00
152;DHT22;68;48.792;9.164;2023-06-19T09:19:25;26.70;67.00
152;DHT22;68;48.792;9.164;2023-06-19T09:21:53;26.90;66.30
152;DHT22;68;48.792;9.164;2023-06-19T09:24:19;27.10;65.10
152;DHT22;68;48.792;9.164;2023-06-19T09:26:46;27.30;65.30
152;DHT22;68;48.792;9.164;2023-06-19T09:29:14;27.50;64.00
152;DHT22;68;48.792;9.164;2023-06-19T09:31:43;27.60;64.80
152;DHT22;68;48.792;9.164;2023-06-19T09:34:10;27.50;63.80
152;DHT22;68;48.792;9.164;2023-06-19T09:36:37;27.40;64.90
152;DHT22;68;48.792;9.164;2023-06-19T09:39:05;27.50;65.10
152;DHT22;68;48.792;9.164;2023-06-19T09:41:35;27.50;65.70
152;DHT22;68;48.792;9.164;2023-06-19T09:44:04;27.30;65.40
152;DHT22;68;48.792;9.164;2023-06-19T09:46:38;27.10;65.90
152;DHT22;68;48.792;9.164;2023-06-19T09:49:08;26.80;66.30
152;DHT22;68;48.792;9.164;2023-06-19T09:51:37;26.40;66.60
152;DHT22;68;48.792;9.164;2023-06-19T09:54:09;26.30;68.40
152;DHT22;68;48.792;9.164;2023-06-19T09:56:37;26.20;68.40
152;DHT22;68;48.792;9.164;2023-06-19T09:59:06;26.50;68.70
152;DHT22;68;48.792;9.164;2023-06-19T10:01:35;26.70;66.80
152;DHT22;68;48.792;9.164;2023-06-19T10:04:04;26.80;67.60
152;DHT22;68;48.792;9.164;2023-06-19T10:06:31;26.80;68.20
152;DHT22;68;48.792;9.164;2023-06-19T10:09:06;27.00;65.60
152;DHT22;68;48.792;9.164;2023-06-19T10:11:49;27.20;66.20
152;DHT22;68;48.792;9.164;2023-06-19T10:14:17;27.20;66.40
152;DHT22;68;48.792;9.164;2023-06-19T10:16:45;27.20;65.50
152;DHT22;68;48.792;9.164;2023-06-19T10:19:13;27.30;65.20
152;DHT22;68;48.792;9.164;2023-06-19T10:21:44;27.50;64.90
152;DHT22;68;48.792;9.164;2023-06-19T10:24:14;27.60;64.50
152;DHT22;68;48.792;9.164;2023-06-19T10:26:43;27.70;65.40
152;DHT22;68;48.792;9.164;2023-06-19T10:29:15;27.60;63.60
152;DHT22;68;48.792;9.164;2023-06-19T10:31:42;27.60;64.40
152;DHT22;68;48.792;9.164;2023-06-19T10:34:09;27.80;66.00
152;DHT22;68;48.792;9.164;2023-06-19T10:36:37;28.00;64.90
152;DHT22;68;48.792;9.164;2023-06-19T10:39:04;28.10;65.10
152;DHT22;68;48.792;9.164;2023-06-19T10:41:32;28.00;65.20
152;DHT22;68;48.792;9.164;2023-06-19T10:44:00;27.80;65.30
152;DHT22;68;48.792;9.164;2023-06-19T10:46:31;27.80;65.10
152;DHT22;68;48.792;9.164;2023-06-19T10:48:58;27.80;64.50
152;DHT22;68;48.792;9.164;2023-06-19T10:51:27;27.80;66.30
152;DHT22;68;48.792;9.164;2023-06-19T10:53:54;27.90;65.80
152;DHT22;68;48.792;9.164;2023-06-19T10:56:22;27.80;65.90
152;DHT22;68;48.792;9.164;2023-06-19T10:58:56;27.70;65.60
152;DHT22;68;48.792;9.164;2023-06-19T11:01:33;27.60;66.60
152;DHT22;68;48.792;9.164;2023-06-19T11:04:03;27.80;67.90
152;DHT22;68;48.792;9.164;2023-06-19T11:06:31;28.10;66.00
152;DHT22;68;48.792;9.164;2023-06-19T11:08:57;28.10;65.50
152;DHT22;68;48.792;9.164;2023-06-19T11:11:34;27.90;66.60
152;DHT22;68;48.792;9.164;2023-06-19T11:14:02;28.00;66.40
152;DHT22;68;48.792;9.164;2023-06-19T11:16:29;27.80;64.30
152;DHT22;68;48.792;9.164;2023-06-19T11:18:57;27.90;64.90
152;DHT22;68;48.792;9.164;2023-06-19T11:21:30;28.00;66.50
152;DHT22;68;48.792;9.164;2023-06-19T11:23:58;28.30;65.40
152;DHT22;68;48.792;9.164;2023-06-19T11:26:26;28.40;64.40
152;DHT22;68;48.792;9.164;2023-06-19T11:28:53;28.60;63.80
152;DHT22;68;48.792;9.164;2023-06-19T11:31:25;28.70;63.50
152;DHT22;68;48.792;9.164;2023-06-19T11:33:57;28.50;63.70
152;DHT22;68;48.792;9.164;2023-06-19T11:36:27;28.30;63.10
152;DHT22;68;48.792;9.164;2023-06-19T11:38:55;28.10;63.60
152;DHT22;68;48.792;9.164;2023-06-19T11:41:25;28.10;65.30
152;DHT22;68;48.792;9.164;2023-06-19T11:43:58;28.00;65.60
152;DHT22;68;48.792;9.164;2023-06-19T11:46:28;28.00;65.20
152;DHT22;68;48.792;9.164;2023-06-19T11:49:07;28.10;64.80
152;DHT22;68;48.792;9.164;2023-06-19T11:51:34;28.50;64.50
152;DHT22;68;48.792;9.164;2023-06-19T11:54:01;29.00;63.00
152;DHT22;68;48.792;9.164;2023-06-19T11:56:28;29.40;61.40
152;DHT22;68;48.792;9.164;2023-06-19T11:58:55;29.80;61.20
152;DHT22;68;48.792;9.164;2023-06-19T12:01:22;29.90;60.20
152;DHT22;68;48.792;9.164;2023-06-19T12:03:49;29.80;60.50
152;DHT22;68;48.792;9.164;2023-06-19T12:06:17;30.00;60.20
152;DHT22;68;48.792;9.164;2023-06-19T12:08:44;29.70;60.50
152;DHT22;68;48.792;9.164;2023-06-19T12:11:11;29.90;59.70
152;DHT22;68;48.792;9.164;2023-06-19T12:13:39;30.10;59.40
152;DHT22;68;48.792;9.164;2023-06-19T12:16:06;30.10;60.00
152;DHT22;68;48.792;9.164;2023-06-19T12:18:33;29.90;60.50
152;DHT22;68;48.792;9.164;2023-06-19T12:21:00;29.50;61.40
152;DHT22;68;48.792;9.164;2023-06-19T12:23:29;29.30;61.60
152;DHT22;68;48.792;9.164;2023-06-19T12:25:56;28.90;63.00
152;DHT22;68;48.792;9.164;2023-06-19T12:28:23;29.00;62.80
152;DHT22;68;48.792;9.164;2023-06-19T12:30:52;28.70;62.90
152;DHT22;68;48.792;9.164;2023-06-19T12:33:21;28.50;63.90
152;DHT22;68;48.792;9.164;2023-06-19T12:35:48;28.60;63.30
152;DHT22;68;48.792;9.164;2023-06-19T12:38:15;28.70;62.40
152;DHT22;68;48.792;9.164;2023-06-19T12:40:44;28.80;63.50
152;DHT22;68;48.792;9.164;2023-06-19T12:43:11;28.90;63.00
152;DHT22;68;48.792;9.164;2023-06-19T12:45:38;29.10;62.60
152;DHT22;68;48.792;9.164;2023-06-19T12:48:06;29.00;61.80
152;DHT22;68;48.792;9.164;2023-06-19T12:50:33;29.10;63.00
152;DHT22;68;48.792;9.164;2023-06-19T12:53:00;29.30;61.00
152;DHT22;68;48.792;9.164;2023-06-19T12:55:26;29.40;61.40
152;DHT22;68;48.792;9.164;2023-06-19T12:57:54;29.40;61.90
152;DHT22;68;48.792;9.164;2023-06-19T13:00:21;29.50;61.10
152;DHT22;68;48.792;9.164;2023-06-19T13:02:48;29.30;61.70
152;DHT22;68;48.792;9.164;2023-06-19T13:05:15;28.90;62.30
152;DHT22;68;48.792;9.164;2023-06-19T13:07:42;28.80;61.90
152;DHT22;68;48.792;9.164;2023-06-19T13:10:09;29.20;61.90
152;DHT22;68;48.792;9.164;2023-06-19T13:12:36;29.60;61.00
152;DHT22;68;48.792;9.164;2023-06-19T13:15:05;29.40;61.00
152;DHT22;68;48.792;9.164;2023-06-19T13:17:32;29.30;61.70
152;DHT22;68;48.792;9.164;2023-06-19T13:19:59;29.30;61.50
152;DHT22;68;48.792;9.164;2023-06-19T13:22:26;29.30;61.00
152;DHT22;68;48.792;9.164;2023-06-19T13:24:52;29.30;61.30
152;DHT22;68;48.792;9.164;2023-06-19T13:27:19;29.40;60.20
152;DHT22;68;48.792;9.164;2023-06-19T13:29:46;29.30;60.10
152;DHT22;68;48.792;9.164;2023-06-19T13:32:14;28.80;61.50
152;DHT22;68;48.792;9.164;2023-06-19T13:34:41;28.70;61.50
152;DHT22;68;48.792;9.164;2023-06-19T13:37:08;28.70;61.20
152;DHT22;68;48.792;9.164;2023-06-19T13:39:35;28.70;61.10
152;DHT22;68;48.792;9.164;2023-06-19T13:42:05;28.50;61.20
152;DHT22;68;48.792;9.164;2023-06-19T13:44:32;28.60;60.60
152;DHT22;68;48.792;9.164;2023-06-19T13:46:59;28.70;62.40
152;DHT22;68;48.792;9.164;2023-06-19T13:49:27;29.10;61.20
152;DHT22;68;48.792;9.164;2023-06-19T13:51:54;29.30;62.50
152;DHT22;68;48.792;9.164;2023-06-19T13:54:21;29.60;60.20
152;DHT22;68;48.792;9.164;2023-06-19T13:56:48;29.00;60.20
152;DHT22;68;48.792;9.164;2023-06-19T13:59:17;28.70;61.10
152;DHT22;68;48.792;9.164;2023-06-19T14:01:43;28.90;61.50
152;DHT22;68;48.792;9.164;2023-06-19T14:04:10;28.90;61.10
152;DHT22;68;48.792;9.164;2023-06-19T14:06:38;29.30;59.60
152;DHT22;68;48.792;9.164;2023-06-19T14:09:08;29.30;59.00
152;DHT22;68;48.792;9.164;2023-06-19T14:11:34;29.20;60.10
152;DHT22;68;48.792;9.164;2023-06-19T14:14:01;29.30;59.50
152;DHT22;68;48.792;9.164;2023-06-19T14:16:28;29.40;59.70
152;DHT22;68;48.792;9.164;2023-06-19T14:18:54;29.20;60.80
152;DHT22;68;48.792;9.164;2023-06-19T14:21:21;29.10;60.40
152;DHT22;68;48.792;9.164;2023-06-19T14:23:50;29.10;60.60
152;DHT22;68;48.792;9.164;2023-06-19T14:26:16;29.10;60.90
152;DHT22;68;48.792;9.164;2023-06-19T14:28:43;29.40;61.40
152;DHT22;68;48.792;9.164;2023-06-19T14:31:10;29.70;60.20
152;DHT22;68;48.792;9.164;2023-06-19T14:33:37;29.60;59.30
152;DHT22;68;48.792;9.164;2023-06-19T14:36:04;29.40;61.70
152;DHT22;68;48.792;9.164;2023-06-19T14:38:31;29.20;61.10
152;DHT22;68;48.792;9.164;2023-06-19T14:41:01;29.10;60.90
152;DHT22;68;48.792;9.164;2023-06-19T14:43:27;29.10;60.00
152;DHT22;68;48.792;9.164;2023-06-19T14:45:55;29.10;61.80
152;DHT22;68;48.792;9.164;2023-06-19T14:48:22;29.00;60.80
152;DHT22;68;48.792;9.164;2023-06-19T14:50:49;29.00;60.20
152;DHT22;68;48.792;9.164;2023-06-19T14:53:15;29.10;60.20
152;DHT22;68;48.792;9.164;2023-06-19T14:55:42;29.10;61.00
152;DHT22;68;48.792;9.164;2023-06-19T14:58:13;29.00;61.20
152;DHT22;68;48.792;9.164;2023-06-19T15:00:40;28.90;62.30
152;DHT22;68;48.792;9.164;2023-06-19T15:03:06;28.70;61.30
152;DHT22;68;48.792;9.164;2023-06-19T15:05:33;28.60;61.50
152;DHT22;68;48.792;9.164;2023-06-19T15:08:00;28.70;62.50
152;DHT22;68;48.792;9.164;2023-06-19T15:10:28;28.80;62.60
152;DHT22;68;48.792;9.164;2023-06-19T15:12:55;29.20;61.60
152;DHT22;68;48.792;9.164;2023-06-19T15:15:23;29.40;60.20
152;DHT22;68;48.792;9.164;2023-06-19T15:17:50;29.10;59.90
152;DHT22;68;48.792;9.164;2023-06-19T15:20:17;29.20;60.90
152;DHT22;68;48.792;9.164;2023-06-19T15:22:46;29.50;60.50
152;DHT22;68;48.792;9.164;2023-06-19T15:25:13;29.20;60.70
152;DHT22;68;48.792;9.164;2023-06-19T15:27:40;29.10;60.80
152;DHT22;68;48.792;9.164;2023-06-19T15:30:07;29.00;61.50
152;DHT22;68;48.792;9.164;2023-06-19T15:32:36;28.90;61.50
152;DHT22;68;48.792;9.164;2023-06-19T15:35:03;28.80;61.50
152;DHT22;68;48.792;9.164;2023-06-19T15:37:29;28.70;61.60
152;DHT22;68;48.792;9.164;2023-06-19T15:39:56;28.70;61.90
152;DHT22;68;48.792;9.164;2023-06-19T15:42:23;28.90;61.00
152;DHT22;68;48.792;9.164;2023-06-19T15:44:50;28.90;60.60
152;DHT22;68;48.792;9.164;2023-06-19T15:47:17;29.10;60.90
152;DHT22;68;48.792;9.164;2023-06-19T15:49:45;29.10;61.40
152;DHT22;68;48.792;9.164;2023-06-19T15:52:12;28.90;61.40
152;DHT22;68;48.792;9.164;2023-06-19T15:54:39;28.80;61.50
152;DHT22;68;48.792;9.164;2023-06-19T15:57:07;28.80;60.70
152;DHT22;68;48.792;9.164;2023-06-19T15:59:34;28.80;60.60
152;DHT22;68;48.792;9.164;2023-06-19T16:02:00;28.80;61.00
152;DHT22;68;48.792;9.164;2023-06-19T16:04:28;28.90;61.50
152;DHT22;68;48.792;9.164;2023-06-19T16:06:56;28.90;61.60
152;DHT22;68;48.792;9.164;2023-06-19T16:09:22;29.00;61.10
152;DHT22;68;48.792;9.164;2023-06-19T16:11:49;28.90;61.00
152;DHT22;68;48.792;9.164;2023-06-19T16:14:16;28.90;60.40
152;DHT22;68;48.792;9.164;2023-06-19T16:19:10;28.70;60.90
152;DHT22;68;48.792;9.164;2023-06-19T16:21:37;28.60;60.80
152;DHT22;68;48.792;9.164;2023-06-19T16:24:05;28.70;61.50
152;DHT22;68;48.792;9.164;2023-06-19T16:26:33;28.60;62.80
152;DHT22;68;48.792;9.164;2023-06-19T16:28:59;28.60;64.00
152;DHT22;68;48.792;9.164;2023-06-19T16:31:26;28.50;64.10
152;DHT22;68;48.792;9.164;2023-06-19T16:33:53;28.60;64.40
152;DHT22;68;48.792;9.164;2023-06-19T16:36:20;28.50;65.70
152;DHT22;68;48.792;9.164;2023-06-19T16:38:48;28.60;65.00
152;DHT22;68;48.792;9.164;2023-06-19T16:41:16;28.80;64.60
152;DHT22;68;48.792;9.164;2023-06-19T16:43:43;28.80;64.60
152;DHT22;68;48.792;9.164;2023-06-19T16:46:10;28.80;64.60
152;DHT22;68;48.792;9.164;2023-06-19T16:48:37;28.80;64.30
152;DHT22;68;48.792;9.164;2023-06-19T16:51:03;28.50;64.60
152;DHT22;68;48.792;9.164;2023-06-19T16:53:30;28.40;65.90
152;DHT22;68;48.792;9.164;2023-06-19T16:55:57;28.30;65.60